sensor_id;sensor_type;location;lat;lon;timestamp;pressure;altitude;pressure_sealevel;temperature;humidity
59337;BME280;45115;52.002;4.686;2023-02-01T00:01:59;102054.78;;;5.90;100.00
59337;BME280;45115;52.002;4.686;2023-02-01T00:04:26;102045.28;;;5.82;100.00
59337;BME280;45115;52.002;4.686;2023-02-01T00:06:53;102044.25;;;5.90;100.00
59337;BME280;45115;52.002;4.686;2023-02-01T00:09:20;102054.78;;;5.90;100.00
59337;BME280;45115;52.002;4.686;2023-02-01T00:11:46;102054.97;;;5.89;100.00
59337;BME280;45115;52.002;4.686;2023-02-01T00:14:15;102052.34;;;5.82;100.00
59337;BME280;45115;52.002;4.686;2023-02-01T00:16:42;102051.31;;;5.83;100.00
59337;BME280;45115;52.002;4.686;2023-02-01T00:19:11;102056.59;;;5.83;100.00
59337;BME280;45115;52.002;4.686;2023-02-01T00:21:38;102047.72;;;5.70;100.00
59337;BME280;45115;52.002;4.686;2023-02-01T00:24:06;102051.75;;;5.66;100.00
59337;BME280;45115;52.002;4.686;2023-02-01T00:26:34;102060.28;;;5.62;100.00
59337;BME280;45115;52.002;4.686;2023-02-01T00:29:04;102048.72;;;5.56;100.00
59337;BME280;45115;52.002;4.686;2023-02-01T00:31:33;102057.84;;;5.67;100.00
59337;BME280;45115;52.002;4.686;2023-02-01T00:33:59;102048.50;;;5.71;100.00
59337;BME280;45115;52.002;4.686;2023-02-01T00:36:26;102034.53;;;5.57;100.00
59337;BME280;45115;52.002;4.686;2023-02-01T00:38:55;102055.41;;;5.72;100.00
59337;BME280;45115;52.002;4.686;2023-02-01T00:41:22;102042.63;;;5.62;100.00
59337;BME280;45115;52.002;4.686;2023-02-01T00:43:49;102051.16;;;5.64;100.00
59337;BME280;45115;52.002;4.686;2023-02-01T00:46:18;102051.13;;;5.71;100.00
59337;BME280;45115;52.002;4.686;2023-02-01T00:48:46;102056.00;;;5.74;100.00
59337;BME280;45115;52.002;4.686;2023-02-01T00:51:15;102051.94;;;5.65;100.00
59337;BME280;45115;52.002;4.686;2023-02-01T00:53:42;102044.69;;;5.67;100.00
59337;BME280;45115;52.002;4.686;2023-02-01T00:56:09;102035.75;;;5.54;100.00
59337;BME280;45115;52.002;4.686;2023-02-01T00:58:36;102025.03;;;5.49;100.00
59337;BME280;45115;52.002;4.686;2023-02-01T01:01:05;102026.88;;;5.49;100.00
59337;BME280;45115;52.002;4.686;2023-02-01T01:03:34;102020.97;;;5.53;100.00
59337;BME280;45115;52.002;4.686;2023-02-01T01:06:06;102022.00;;;5.52;100.00
59337;BME280;45115;52.002;4.686;2023-02-01T01:08:34;102022.59;;;5.61;100.00
59337;BME280;45115;52.002;4.686;2023-02-01T01:11:05;102030.09;;;5.64;100.00
59337;BME280;45115;52.002;4.686;2023-02-01T01:13:32;102026.44;;;5.72;100.00
59337;BME280;45115;52.002;4.686;2023-02-01T01:16:00;102035.97;;;5.73;100.00
59337;BME280;45115;52.002;4.686;2023-02-01T01:18:28;102029.06;;;5.72;100.00
59337;BME280;45115;52.002;4.686;2023-02-01T01:20:55;102029.88;;;5.66;100.00
59337;BME280;45115;52.002;4.686;2023-02-01T01:23:23;102019.53;;;5.71;100.00
59337;BME280;45115;52.002;4.686;2023-02-01T01:25:52;102016.50;;;5.74;100.00
59337;BME280;45115;52.002;4.686;2023-02-01T01:28:19;102027.63;;;5.76;100.00
59337;BME280;45115;52.002;4.686;2023-02-01T01:30:46;102022.56;;;5.81;100.00
59337;BME280;45115;52.002;4.686;2023-02-01T01:33:13;102032.91;;;5.76;100.00
59337;BME280;45115;52.002;4.686;2023-02-01T01:35:40;102037.56;;;5.74;100.00
59337;BME280;45115;52.002;4.686;2023-02-01T01:38:08;102022.59;;;5.68;100.00
59337;BME280;45115;52.002;4.686;2023-02-01T01:40:37;102030.06;;;5.84;100.00
59337;BME280;45115;52.002;4.686;2023-02-01T01:43:12;102027.22;;;5.86;100.00
59337;BME280;45115;52.002;4.686;2023-02-01T01:45:39;102033.72;;;5.90;100.00
59337;BME280;45115;52.002;4.686;2023-02-01T01:48:10;102030.03;;;6.05;100.00
59337;BME280;45115;52.002;4.686;2023-02-01T01:50:41;102037.09;;;6.18;100.00
59337;BME280;45115;52.002;4.686;2023-02-01T01:53:12;102035.88;;;6.20;100.00
59337;BME280;45115;52.002;4.686;2023-02-01T01:55:43;102022.50;;;6.22;100.00
59337;BME280;45115;52.002;4.686;2023-02-01T01:58:14;102017.00;;;6.23;100.00
59337;BME280;45115;52.002;4.686;2023-02-01T02:00:42;102006.91;;;6.14;100.00
59337;BME280;45115;52.002;4.686;2023-02-01T02:03:15;102017.41;;;6.20;100.00
59337;BME280;45115;52.002;4.686;2023-02-01T02:05:44;102014.97;;;6.19;100.00
59337;BME280;45115;52.002;4.686;2023-02-01T02:08:12;101988.28;;;6.02;100.00
59337;BME280;45115;52.002;4.686;2023-02-01T02:10:39;102003.28;;;6.15;100.00
59337;BME280;45115;52.002;4.686;2023-02-01T02:13:25;102000.81;;;6.20;100.00
59337;BME280;45115;52.002;4.686;2023-02-01T02:16:04;102010.50;;;6.33;100.00
59337;BME280;45115;52.002;4.686;2023-02-01T02:18:40;101983.38;;;6.19;100.00
59337;BME280;45115;52.002;4.686;2023-02-01T02:21:15;101980.13;;;6.17;100.00
59337;BME280;45115;52.002;4.686;2023-02-01T02:24:25;101993.91;;;6.19;100.00
59337;BME280;45115;52.002;4.686;2023-02-01T02:27:21;101990.09;;;6.15;100.00
59337;BME280;45115;52.002;4.686;2023-02-01T02:30:35;101969.81;;;6.08;100.00
59337;BME280;45115;52.002;4.686;2023-02-01T02:36:19;101989.28;;;6.14;100.00
59337;BME280;45115;52.002;4.686;2023-02-01T02:38:54;101994.69;;;6.33;100.00
59337;BME280;45115;52.002;4.686;2023-02-01T02:41:31;101995.84;;;6.37;100.00
59337;BME280;45115;52.002;4.686;2023-02-01T02:44:21;101995.03;;;6.43;100.00
59337;BME280;45115;52.002;4.686;2023-02-01T02:47:13;101990.00;;;6.35;100.00
59337;BME280;45115;52.002;4.686;2023-02-01T02:49:54;101991.03;;;6.34;100.00
59337;BME280;45115;52.002;4.686;2023-02-01T02:52:57;101979.44;;;6.42;100.00
59337;BME280;45115;52.002;4.686;2023-02-01T02:55:45;101977.84;;;6.34;100.00
59337;BME280;45115;52.002;4.686;2023-02-01T02:58:12;101982.28;;;6.33;100.00
59337;BME280;45115;52.002;4.686;2023-02-01T03:00:58;101963.06;;;6.33;100.00
59337;BME280;45115;52.002;4.686;2023-02-01T03:03:43;101957.56;;;6.34;100.00
59337;BME280;45115;52.002;4.686;2023-02-01T03:06:28;101956.50;;;6.42;100.00
59337;BME280;45115;52.002;4.686;2023-02-01T03:08:58;101943.97;;;6.37;100.00
59337;BME280;45115;52.002;4.686;2023-02-01T03:11:25;101940.56;;;6.30;100.00
59337;BME280;45115;52.002;4.686;2023-02-01T03:14:15;101931.06;;;6.22;100.00
59337;BME280;45115;52.002;4.686;2023-02-01T03:16:47;101938.16;;;6.22;100.00
59337;BME280;45115;52.002;4.686;2023-02-01T03:19:19;101944.44;;;6.28;100.00
59337;BME280;45115;52.002;4.686;2023-02-01T03:21:50;101942.59;;;6.21;100.00
59337;BME280;45115;52.002;4.686;2023-02-01T03:24:24;101946.72;;;6.17;100.00
59337;BME280;45115;52.002;4.686;2023-02-01T03:27:03;101958.28;;;6.09;100.00
59337;BME280;45115;52.002;4.686;2023-02-01T03:29:39;101961.94;;;6.02;100.00
59337;BME280;45115;52.002;4.686;2023-02-01T03:32:08;101955.69;;;5.89;100.00
59337;BME280;45115;52.002;4.686;2023-02-01T03:34:36;101957.53;;;5.89;100.00
59337;BME280;45115;52.002;4.686;2023-02-01T03:37:05;101958.72;;;5.93;100.00
59337;BME280;45115;52.002;4.686;2023-02-01T03:39:38;101955.06;;;6.01;100.00
59337;BME280;45115;52.002;4.686;2023-02-01T03:42:10;101948.38;;;6.05;100.00
59337;BME280;45115;52.002;4.686;2023-02-01T03:44:45;101954.25;;;6.07;100.00
59337;BME280;45115;52.002;4.686;2023-02-01T03:47:15;101955.44;;;6.11;100.00
59337;BME280;45115;52.002;4.686;2023-02-01T03:49:48;101950.59;;;6.08;100.00
59337;BME280;45115;52.002;4.686;2023-02-01T03:52:20;101952.63;;;6.06;100.00
59337;BME280;45115;52.002;4.686;2023-02-01T03:54:51;101955.47;;;5.97;100.00
59337;BME280;45115;52.002;4.686;2023-02-01T03:57:23;101972.28;;;5.96;100.00
59337;BME280;45115;52.002;4.686;2023-02-01T03:59:51;101961.13;;;6.01;100.00
59337;BME280;45115;52.002;4.686;2023-02-01T04:02:19;101949.56;;;6.02;100.00
59337;BME280;45115;52.002;4.686;2023-02-01T04:04:45;101966.41;;;6.08;100.00
59337;BME280;45115;52.002;4.686;2023-02-01T04:07:15;101970.88;;;6.01;100.00
59337;BME280;45115;52.002;4.686;2023-02-01T04:09:42;101962.34;;;5.98;100.00
59337;BME280;45115;52.002;4.686;2023-02-01T04:12:10;101960.53;;;6.06;100.00
59337;BME280;45115;52.002;4.686;2023-02-01T04:14:37;101955.66;;;6.09;100.00
59337;BME280;45115;52.002;4.686;2023-02-01T04:17:04;101947.31;;;6.13;100.00
59337;BME280;45115;52.002;4.686;2023-02-01T04:19:34;101968.41;;;6.13;100.00
59337;BME280;45115;52.002;4.686;2023-02-01T04:22:00;101972.66;;;6.14;100.00
59337;BME280;45115;52.002;4.686;2023-02-01T04:24:27;101962.72;;;6.16;100.00
59337;BME280;45115;52.002;4.686;2023-02-01T04:26:54;101967.56;;;6.19;100.00
59337;BME280;45115;52.002;4.686;2023-02-01T04:29:22;101948.91;;;6.20;100.00
59337;BME280;45115;52.002;4.686;2023-02-01T04:31:49;101960.06;;;6.22;100.00
59337;BME280;45115;52.002;4.686;2023-02-01T04:34:16;101956.03;;;6.13;100.00
59337;BME280;45115;52.002;4.686;2023-02-01T04:36:42;101952.19;;;6.16;100.00
59337;BME280;45115;52.002;4.686;2023-02-01T04:39:09;101954.63;;;6.10;100.00
59337;BME280;45115;52.002;4.686;2023-02-01T04:41:36;101963.16;;;5.99;100.00
59337;BME280;45115;52.002;4.686;2023-02-01T04:44:03;101952.06;;;5.90;100.00
59337;BME280;45115;52.002;4.686;2023-02-01T04:46:31;101955.50;;;5.84;100.00
59337;BME280;45115;52.002;4.686;2023-02-01T04:48:59;101949.44;;;5.90;100.00
59337;BME280;45115;52.002;4.686;2023-02-01T04:51:26;101948.59;;;5.96;100.00
59337;BME280;45115;52.002;4.686;2023-02-01T04:53:52;101943.75;;;5.87;100.00
59337;BME280;45115;52.002;4.686;2023-02-01T04:56:21;101945.75;;;5.98;100.00
59337;BME280;45115;52.002;4.686;2023-02-01T04:58:47;101944.16;;;5.90;100.00
59337;BME280;45115;52.002;4.686;2023-02-01T05:01:14;101940.50;;;5.84;100.00
59337;BME280;45115;52.002;4.686;2023-02-01T05:03:44;101939.94;;;5.82;100.00
59337;BME280;45115;52.002;4.686;2023-02-01T05:06:10;101935.03;;;5.86;100.00
59337;BME280;45115;52.002;4.686;2023-02-01T05:08:37;101942.31;;;5.91;100.00
59337;BME280;45115;52.002;4.686;2023-02-01T05:11:04;101934.88;;;5.81;100.00
59337;BME280;45115;52.002;4.686;2023-02-01T05:13:31;101944.63;;;5.67;100.00
59337;BME280;45115;52.002;4.686;2023-02-01T05:16:15;101933.91;;;5.55;100.00
59337;BME280;45115;52.002;4.686;2023-02-01T05:18:43;101950.69;;;5.67;100.00
59337;BME280;45115;52.002;4.686;2023-02-01T05:21:10;101950.88;;;5.72;100.00
59337;BME280;45115;52.002;4.686;2023-02-01T05:23:37;101934.69;;;5.62;100.00
59337;BME280;45115;52.002;4.686;2023-02-01T05:26:18;101969.75;;;5.63;100.00
59337;BME280;45115;52.002;4.686;2023-02-01T05:28:44;101961.41;;;5.66;100.00
59337;BME280;45115;52.002;4.686;2023-02-01T05:31:11;101972.38;;;5.63;100.00
59337;BME280;45115;52.002;4.686;2023-02-01T05:33:38;101970.97;;;5.67;100.00
59337;BME280;45115;52.002;4.686;2023-02-01T05:36:06;101973.59;;;5.60;100.00
59337;BME280;45115;52.002;4.686;2023-02-01T05:38:33;101969.34;;;5.59;100.00
59337;BME280;45115;52.002;4.686;2023-02-01T05:41:00;101954.56;;;5.58;100.00
59337;BME280;45115;52.002;4.686;2023-02-01T05:43:27;101964.09;;;5.59;100.00
59337;BME280;45115;52.002;4.686;2023-02-01T05:45:54;101960.81;;;5.64;100.00
59337;BME280;45115;52.002;4.686;2023-02-01T05:48:20;101954.97;;;5.62;100.00
59337;BME280;45115;52.002;4.686;2023-02-01T05:50:47;101955.94;;;5.67;100.00
59337;BME280;45115;52.002;4.686;2023-02-01T05:53:15;101957.56;;;5.75;100.00
59337;BME280;45115;52.002;4.686;2023-02-01T05:55:42;101964.66;;;5.75;100.00
59337;BME280;45115;52.002;4.686;2023-02-01T05:58:09;101973.34;;;5.68;100.00
59337;BME280;45115;52.002;4.686;2023-02-01T06:00:36;101973.78;;;5.72;100.00
59337;BME280;45115;52.002;4.686;2023-02-01T06:03:02;101979.88;;;5.59;100.00
59337;BME280;45115;52.002;4.686;2023-02-01T06:05:29;101975.00;;;5.63;100.00
59337;BME280;45115;52.002;4.686;2023-02-01T06:07:56;101971.16;;;5.72;100.00
59337;BME280;45115;52.002;4.686;2023-02-01T06:10:25;101968.53;;;5.72;100.00
59337;BME280;45115;52.002;4.686;2023-02-01T06:12:51;101965.47;;;5.68;100.00
59337;BME280;45115;52.002;4.686;2023-02-01T06:15:18;101973.56;;;5.74;100.00
59337;BME280;45115;52.002;4.686;2023-02-01T06:17:46;101962.63;;;5.70;100.00
59337;BME280;45115;52.002;4.686;2023-02-01T06:20:13;101980.22;;;5.76;100.00
59337;BME280;45115;52.002;4.686;2023-02-01T06:22:41;101975.97;;;5.75;100.00
59337;BME280;45115;52.002;4.686;2023-02-01T06:25:09;101994.81;;;5.85;100.00
59337;BME280;45115;52.002;4.686;2023-02-01T06:27:37;101982.25;;;5.88;100.00
59337;BME280;45115;52.002;4.686;2023-02-01T06:30:05;101984.06;;;5.94;100.00
59337;BME280;45115;52.002;4.686;2023-02-01T06:32:33;101975.91;;;6.02;100.00
59337;BME280;45115;52.002;4.686;2023-02-01T06:35:00;101967.22;;;5.95;100.00
59337;BME280;45115;52.002;4.686;2023-02-01T06:37:26;101989.06;;;6.02;100.00
59337;BME280;45115;52.002;4.686;2023-02-01T06:39:54;101982.00;;;5.96;100.00
59337;BME280;45115;52.002;4.686;2023-02-01T06:42:21;101982.63;;;5.98;100.00
59337;BME280;45115;52.002;4.686;2023-02-01T06:44:50;101984.06;;;5.87;100.00
59337;BME280;45115;52.002;4.686;2023-02-01T06:47:17;101981.41;;;6.01;100.00
59337;BME280;45115;52.002;4.686;2023-02-01T06:49:43;101983.03;;;5.95;100.00
59337;BME280;45115;52.002;4.686;2023-02-01T06:52:10;101966.41;;;5.94;100.00
59337;BME280;45115;52.002;4.686;2023-02-01T06:54:38;101961.59;;;5.84;100.00
59337;BME280;45115;52.002;4.686;2023-02-01T06:57:04;101971.28;;;5.91;100.00
59337;BME280;45115;52.002;4.686;2023-02-01T06:59:31;101961.97;;;5.88;100.00
59337;BME280;45115;52.002;4.686;2023-02-01T07:01:59;101964.00;;;5.93;100.00
59337;BME280;45115;52.002;4.686;2023-02-01T07:04:26;101966.84;;;5.84;100.00
59337;BME280;45115;52.002;4.686;2023-02-01T07:06:53;101964.41;;;5.83;100.00
59337;BME280;45115;52.002;4.686;2023-02-01T07:09:20;101980.84;;;5.85;100.00
59337;BME280;45115;52.002;4.686;2023-02-01T07:11:46;101964.66;;;5.68;100.00
59337;BME280;45115;52.002;4.686;2023-02-01T07:14:16;101970.53;;;5.70;100.00
59337;BME280;45115;52.002;4.686;2023-02-01T07:16:42;101985.69;;;5.81;100.00
59337;BME280;45115;52.002;4.686;2023-02-01T07:19:16;101959.81;;;5.65;100.00
59337;BME280;45115;52.002;4.686;2023-02-01T07:21:43;101981.25;;;5.82;100.00
59337;BME280;45115;52.002;4.686;2023-02-01T07:24:10;101964.66;;;5.68;100.00
59337;BME280;45115;52.002;4.686;2023-02-01T07:26:37;101977.66;;;5.63;100.00
59337;BME280;45115;52.002;4.686;2023-02-01T07:29:04;101983.88;;;5.75;100.00
59337;BME280;45115;52.002;4.686;2023-02-01T07:31:30;101990.34;;;5.86;100.00
59337;BME280;45115;52.002;4.686;2023-02-01T07:33:57;101989.16;;;5.82;100.00
59337;BME280;45115;52.002;4.686;2023-02-01T07:36:26;102001.47;;;5.88;100.00
59337;BME280;45115;52.002;4.686;2023-02-01T07:38:52;102000.69;;;5.88;100.00
59337;BME280;45115;52.002;4.686;2023-02-01T07:41:20;102007.75;;;5.94;100.00
59337;BME280;45115;52.002;4.686;2023-02-01T07:43:46;101997.63;;;5.91;100.00
59337;BME280;45115;52.002;4.686;2023-02-01T07:46:13;102005.53;;;5.84;100.00
59337;BME280;45115;52.002;4.686;2023-02-01T07:48:40;102003.31;;;5.88;100.00
59337;BME280;45115;52.002;4.686;2023-02-01T07:51:10;102019.31;;;5.86;100.00
59337;BME280;45115;52.002;4.686;2023-02-01T07:53:39;102019.34;;;5.79;100.00
59337;BME280;45115;52.002;4.686;2023-02-01T07:56:10;102021.13;;;5.85;100.00
59337;BME280;45115;52.002;4.686;2023-02-01T07:58:37;102023.97;;;5.91;100.00
59337;BME280;45115;52.002;4.686;2023-02-01T08:01:04;102026.00;;;5.89;100.00
59337;BME280;45115;52.002;4.686;2023-02-01T08:03:45;102019.72;;;5.90;100.00
59337;BME280;45115;52.002;4.686;2023-02-01T08:06:12;102019.91;;;5.95;100.00
59337;BME280;45115;52.002;4.686;2023-02-01T08:08:40;102015.28;;;5.90;100.00
59337;BME280;45115;52.002;4.686;2023-02-01T08:11:08;102016.69;;;5.93;100.00
59337;BME280;45115;52.002;4.686;2023-02-01T08:13:35;102004.75;;;5.83;100.00
59337;BME280;45115;52.002;4.686;2023-02-01T08:16:04;102012.81;;;5.95;100.00
59337;BME280;45115;52.002;4.686;2023-02-01T08:18:31;102004.94;;;5.95;100.00
59337;BME280;45115;52.002;4.686;2023-02-01T08:21:03;101999.84;;;5.94;100.00
59337;BME280;45115;52.002;4.686;2023-02-01T08:23:30;101986.66;;;6.01;100.00
59337;BME280;45115;52.002;4.686;2023-02-01T08:26:06;101996.97;;;6.16;100.00
59337;BME280;45115;52.002;4.686;2023-02-01T08:28:33;102001.78;;;6.25;100.00
59337;BME280;45115;52.002;4.686;2023-02-01T08:31:04;101988.19;;;6.35;100.00
59337;BME280;45115;52.002;4.686;2023-02-01T08:33:30;101987.91;;;6.44;100.00
59337;BME280;45115;52.002;4.686;2023-02-01T08:36:00;101973.53;;;6.40;100.00
59337;BME280;45115;52.002;4.686;2023-02-01T08:38:27;101985.44;;;6.56;100.00
59337;BME280;45115;52.002;4.686;2023-02-01T08:40:54;101983.81;;;6.55;100.00
59337;BME280;45115;52.002;4.686;2023-02-01T08:43:22;101991.91;;;6.60;100.00
59337;BME280;45115;52.002;4.686;2023-02-01T08:45:54;101973.28;;;6.55;100.00
59337;BME280;45115;52.002;4.686;2023-02-01T08:48:22;101988.03;;;6.62;100.00
59337;BME280;45115;52.002;4.686;2023-02-01T08:50:48;101988.81;;;6.63;100.00
59337;BME280;45115;52.002;4.686;2023-02-01T08:53:15;101985.94;;;6.71;100.00
59337;BME280;45115;52.002;4.686;2023-02-01T08:55:42;101980.00;;;6.83;100.00
59337;BME280;45115;52.002;4.686;2023-02-01T08:58:09;101985.38;;;6.95;100.00
59337;BME280;45115;52.002;4.686;2023-02-01T09:00:37;101975.25;;;6.91;100.00
59337;BME280;45115;52.002;4.686;2023-02-01T09:03:04;101978.72;;;6.92;100.00
59337;BME280;45115;52.002;4.686;2023-02-01T09:05:30;101971.16;;;6.96;100.00
59337;BME280;45115;52.002;4.686;2023-02-01T09:07:57;101969.59;;;7.13;100.00
59337;BME280;45115;52.002;4.686;2023-02-01T09:10:24;101964.06;;;7.22;100.00
59337;BME280;45115;52.002;4.686;2023-02-01T09:12:51;101937.50;;;7.16;100.00
59337;BME280;45115;52.002;4.686;2023-02-01T09:15:18;101954.41;;;7.34;100.00
59337;BME280;45115;52.002;4.686;2023-02-01T09:17:46;101959.09;;;7.32;100.00
59337;BME280;45115;52.002;4.686;2023-02-01T09:20:14;101959.69;;;7.34;100.00
59337;BME280;45115;52.002;4.686;2023-02-01T09:22:41;101964.16;;;7.34;100.00
59337;BME280;45115;52.002;4.686;2023-02-01T09:25:08;101958.06;;;7.33;100.00
59337;BME280;45115;52.002;4.686;2023-02-01T09:27:35;101948.69;;;7.37;100.00
59337;BME280;45115;52.002;4.686;2023-02-01T09:30:03;101963.41;;;7.26;100.00
59337;BME280;45115;52.002;4.686;2023-02-01T09:32:30;101967.22;;;7.30;100.00
59337;BME280;45115;52.002;4.686;2023-02-01T09:34:59;101973.75;;;7.28;100.00
59337;BME280;45115;52.002;4.686;2023-02-01T09:37:26;101967.03;;;7.32;100.00
59337;BME280;45115;52.002;4.686;2023-02-01T09:39:52;101965.03;;;7.27;100.00
59337;BME280;45115;52.002;4.686;2023-02-01T09:42:27;101977.38;;;7.34;100.00
59337;BME280;45115;52.002;4.686;2023-02-01T09:45:16;101981.81;;;7.33;100.00
59337;BME280;45115;52.002;4.686;2023-02-01T09:47:49;101976.34;;;7.35;100.00
59337;BME280;45115;52.002;4.686;2023-02-01T09:50:21;101977.38;;;7.34;100.00
59337;BME280;45115;52.002;4.686;2023-02-01T09:52:55;101979.63;;;7.30;100.00
59337;BME280;45115;52.002;4.686;2023-02-01T09:55:30;101998.03;;;7.37;100.00
59337;BME280;45115;52.002;4.686;2023-02-01T09:58:03;101996.97;;;7.19;100.00
59337;BME280;45115;52.002;4.686;2023-02-01T10:00:35;101987.28;;;7.13;100.00
59337;BME280;45115;52.002;4.686;2023-02-01T10:03:02;101982.59;;;7.15;100.00
59337;BME280;45115;52.002;4.686;2023-02-01T10:05:43;101979.38;;;7.13;100.00
59337;BME280;45115;52.002;4.686;2023-02-01T10:08:21;101984.03;;;7.11;100.00
59337;BME280;45115;52.002;4.686;2023-02-01T10:10:52;101992.78;;;7.11;100.00
59337;BME280;45115;52.002;4.686;2023-02-01T10:13:33;101988.06;;;7.13;100.00
59337;BME280;45115;52.002;4.686;2023-02-01T10:16:13;101967.81;;;7.07;100.00
59337;BME280;45115;52.002;4.686;2023-02-01T10:19:05;101994.53;;;7.17;100.00
59337;BME280;45115;52.002;4.686;2023-02-01T10:21:45;101990.09;;;7.18;100.00
59337;BME280;45115;52.002;4.686;2023-02-01T10:24:31;101981.56;;;7.16;100.00
59337;BME280;45115;52.002;4.686;2023-02-01T10:27:06;101989.72;;;7.14;100.00
59337;BME280;45115;52.002;4.686;2023-02-01T10:29:37;101992.13;;;7.16;100.00
59337;BME280;45115;52.002;4.686;2023-02-01T10:32:12;101982.75;;;7.20;100.00
59337;BME280;45115;52.002;4.686;2023-02-01T10:34:41;101976.59;;;7.26;100.00
59337;BME280;45115;52.002;4.686;2023-02-01T10:37:20;101981.88;;;7.26;100.00
59337;BME280;45115;52.002;4.686;2023-02-01T10:39:52;101989.16;;;7.31;100.00
59337;BME280;45115;52.002;4.686;2023-02-01T10:42:26;101963.66;;;7.43;100.00
59337;BME280;45115;52.002;4.686;2023-02-01T10:44:56;101975.34;;;7.54;100.00
59337;BME280;45115;52.002;4.686;2023-02-01T10:47:24;101991.56;;;7.58;100.00
59337;BME280;45115;52.002;4.686;2023-02-01T10:49:57;101981.72;;;7.65;100.00
59337;BME280;45115;52.002;4.686;2023-02-01T10:52:38;101985.41;;;7.64;100.00
59337;BME280;45115;52.002;4.686;2023-02-01T10:55:35;101967.34;;;7.61;100.00
59337;BME280;45115;52.002;4.686;2023-02-01T10:58:04;101961.69;;;7.57;100.00
59337;BME280;45115;52.002;4.686;2023-02-01T11:00:41;101962.16;;;7.54;100.00
59337;BME280;45115;52.002;4.686;2023-02-01T11:03:33;101953.69;;;7.46;100.00
59337;BME280;45115;52.002;4.686;2023-02-01T11:06:01;101971.09;;;7.53;100.00
59337;BME280;45115;52.002;4.686;2023-02-01T11:08:30;101983.00;;;7.37;100.00
59337;BME280;45115;52.002;4.686;2023-02-01T11:10:59;101974.81;;;7.46;100.00
59337;BME280;45115;52.002;4.686;2023-02-01T11:13:31;101981.50;;;7.48;100.00
59337;BME280;45115;52.002;4.686;2023-02-01T11:16:02;101961.63;;;7.46;100.00
59337;BME280;45115;52.002;4.686;2023-02-01T11:18:31;101988.59;;;7.48;100.00
59337;BME280;45115;52.002;4.686;2023-02-01T11:20:59;101949.72;;;7.36;100.00
59337;BME280;45115;52.002;4.686;2023-02-01T11:23:28;101952.63;;;7.53;100.00
59337;BME280;45115;52.002;4.686;2023-02-01T11:26:01;101952.53;;;7.60;100.00
59337;BME280;45115;52.002;4.686;2023-02-01T11:28:35;101951.88;;;7.65;100.00
59337;BME280;45115;52.002;4.686;2023-02-01T11:31:08;101956.50;;;7.69;100.00
59337;BME280;45115;52.002;4.686;2023-02-01T11:33:37;101960.31;;;7.74;100.00
59337;BME280;45115;52.002;4.686;2023-02-01T11:36:07;101965.00;;;7.71;100.00
59337;BME280;45115;52.002;4.686;2023-02-01T11:38:34;101954.88;;;7.68;100.00
59337;BME280;45115;52.002;4.686;2023-02-01T11:41:13;101965.06;;;7.83;100.00
59337;BME280;45115;52.002;4.686;2023-02-01T11:43:52;101955.97;;;7.79;100.00
59337;BME280;45115;52.002;4.686;2023-02-01T11:46:23;101957.28;;;7.89;100.00
59337;BME280;45115;52.002;4.686;2023-02-01T11:48:52;101954.16;;;7.98;100.00
59337;BME280;45115;52.002;4.686;2023-02-01T11:51:31;101952.28;;;7.99;100.00
59337;BME280;45115;52.002;4.686;2023-02-01T11:54:18;101964.94;;;7.97;100.00
59337;BME280;45115;52.002;4.686;2023-02-01T11:56:59;101957.56;;;7.99;100.00
59337;BME280;45115;52.002;4.686;2023-02-01T11:59:45;101946.22;;;7.98;100.00
59337;BME280;45115;52.002;4.686;2023-02-01T12:02:30;101946.66;;;7.95;100.00
59337;BME280;45115;52.002;4.686;2023-02-01T12:05:22;101956.84;;;7.92;100.00
59337;BME280;45115;52.002;4.686;2023-02-01T12:08:04;101950.25;;;7.82;100.00
59337;BME280;45115;52.002;4.686;2023-02-01T12:10:43;101944.75;;;7.84;100.00
59337;BME280;45115;52.002;4.686;2023-02-01T12:13:23;101941.06;;;7.85;100.00
59337;BME280;45115;52.002;4.686;2023-02-01T12:16:00;101915.19;;;7.75;100.00
59337;BME280;45115;52.002;4.686;2023-02-01T12:19:04;101937.78;;;7.71;100.00
59337;BME280;45115;52.002;4.686;2023-02-01T12:21:46;101943.22;;;7.76;100.00
59337;BME280;45115;52.002;4.686;2023-02-01T12:24:48;101922.09;;;7.76;100.00
59337;BME280;45115;52.002;4.686;2023-02-01T12:27:36;101936.22;;;7.82;100.00
59337;BME280;45115;52.002;4.686;2023-02-01T12:30:34;101924.78;;;7.88;100.00
59337;BME280;45115;52.002;4.686;2023-02-01T12:33:13;101913.47;;;8.00;100.00
59337;BME280;45115;52.002;4.686;2023-02-01T12:35:59;101924.50;;;8.27;100.00
59337;BME280;45115;52.002;4.686;2023-02-01T12:38:45;101931.41;;;8.28;100.00
59337;BME280;45115;52.002;4.686;2023-02-01T12:41:24;101911.31;;;8.08;100.00
59337;BME280;45115;52.002;4.686;2023-02-01T12:43:56;101921.75;;;8.03;100.00
59337;BME280;45115;52.002;4.686;2023-02-01T12:46:31;101923.16;;;7.87;100.00
59337;BME280;45115;52.002;4.686;2023-02-01T12:49:01;101933.72;;;7.87;100.00
59337;BME280;45115;52.002;4.686;2023-02-01T12:51:33;101902.56;;;7.77;100.00
59337;BME280;45115;52.002;4.686;2023-02-01T12:54:05;101923.72;;;8.08;100.00
59337;BME280;45115;52.002;4.686;2023-02-01T12:56:39;101933.97;;;8.35;100.00
59337;BME280;45115;52.002;4.686;2023-02-01T12:59:16;101913.81;;;8.34;100.00
59337;BME280;45115;52.002;4.686;2023-02-01T13:01:49;101911.28;;;8.39;100.00
59337;BME280;45115;52.002;4.686;2023-02-01T13:04:26;101924.94;;;8.24;100.00
59337;BME280;45115;52.002;4.686;2023-02-01T13:07:01;101906.59;;;8.10;100.00
59337;BME280;45115;52.002;4.686;2023-02-01T13:09:36;101914.53;;;8.10;100.00
59337;BME280;45115;52.002;4.686;2023-02-01T13:12:09;101929.53;;;8.29;100.00
59337;BME280;45115;52.002;4.686;2023-02-01T13:14:42;101917.44;;;8.21;100.00
59337;BME280;45115;52.002;4.686;2023-02-01T13:17:16;101918.81;;;8.11;100.00